createdAt,value
2022-10-05T00:01:30.774Z,26.02
2022-10-05T00:04:19.455Z,31.10
2022-10-05T00:06:56.381Z,26.73
2022-10-05T00:09:24.481Z,25.17
2022-10-05T00:11:52.375Z,25.02
2022-10-05T00:14:30.813Z,44.20
2022-10-05T00:16:59.183Z,17.80
2022-10-05T00:19:29.894Z,18.02
2022-10-05T00:22:01.718Z,19.58
2022-10-05T00:24:30.336Z,20.75
2022-10-05T00:27:21.054Z,21.85
2022-10-05T00:29:50.924Z,39.58
2022-10-05T00:34:47.721Z,69.78
2022-10-05T00:37:15.443Z,26.80
2022-10-05T00:39:43.489Z,222.45
2022-10-05T00:42:36.524Z,31.25
2022-10-05T00:45:20.475Z,21.60
2022-10-05T00:47:54.255Z,97.15
2022-10-05T00:50:40.632Z,16.25
2022-10-05T00:53:31.457Z,15.73
2022-10-05T00:56:19.247Z,23.75
2022-10-05T00:59:12.220Z,30.67
2022-10-05T01:02:10.663Z,24.65
2022-10-05T01:04:57.538Z,15.60
2022-10-05T01:08:22.589Z,12.57
2022-10-05T01:11:32.318Z,17.75
2022-10-05T01:14:26.002Z,19.00
2022-10-05T01:17:25.167Z,18.02
2022-10-05T01:20:08.954Z,18.55
2022-10-05T01:22:58.368Z,16.15
2022-10-05T01:25:37.943Z,20.38
2022-10-05T01:28:12.928Z,21.33
2022-10-05T01:30:51.415Z,19.58
2022-10-05T01:33:53.930Z,26.75
2022-10-05T01:36:46.024Z,38.38
2022-10-05T01:39:30.058Z,36.50
2022-10-05T01:42:45.731Z,33.92
2022-10-05T01:45:28.621Z,33.13
2022-10-05T01:48:11.353Z,32.30
2022-10-05T01:51:23.368Z,33.83
2022-10-05T01:53:53.785Z,22.75
2022-10-05T01:59:16.412Z,17.25
2022-10-05T02:02:09.834Z,13.25
2022-10-05T02:05:01.860Z,30.55
2022-10-05T02:07:48.314Z,27.00
2022-10-05T02:10:20.651Z,29.83
2022-10-05T02:12:55.756Z,28.65
2022-10-05T02:15:29.529Z,31.65
2022-10-05T02:18:05.663Z,34.55
2022-10-05T02:20:37.084Z,35.17
2022-10-05T02:23:11.026Z,29.20
2022-10-05T02:25:43.000Z,31.38
2022-10-05T02:28:12.861Z,34.88
2022-10-05T02:31:05.919Z,32.60
2022-10-05T02:33:34.957Z,33.47
2022-10-05T02:36:18.176Z,33.58
2022-10-05T02:39:35.932Z,33.70
2022-10-05T02:42:29.800Z,27.63
2022-10-05T02:45:35.227Z,31.58
2022-10-05T02:48:15.474Z,29.23
2022-10-05T02:51:11.299Z,27.85
2022-10-05T02:54:18.253Z,28.63
2022-10-05T02:56:53.880Z,30.80
2022-10-05T02:59:36.709Z,22.92
2022-10-05T03:02:22.026Z,28.17
2022-10-05T03:05:02.241Z,30.15
2022-10-05T03:07:40.260Z,30.02
2022-10-05T03:10:38.373Z,29.65
2022-10-05T03:13:23.466Z,31.05
2022-10-05T03:16:05.379Z,25.77
2022-10-05T03:19:10.396Z,23.25
2022-10-05T03:22:00.896Z,23.27
2022-10-05T03:25:12.887Z,25.65
2022-10-05T03:28:03.253Z,23.30
2022-10-05T03:30:42.567Z,21.27
2022-10-05T03:33:59.529Z,22.65
2022-10-05T03:36:56.588Z,18.33
2022-10-05T03:39:47.179Z,21.13
2022-10-05T03:42:30.212Z,22.60
2022-10-05T03:45:23.384Z,20.60
2022-10-05T03:48:01.664Z,24.40
2022-10-05T03:50:41.089Z,19.13
2022-10-05T03:53:24.856Z,20.45
2022-10-05T03:56:16.593Z,18.25
2022-10-05T03:58:59.274Z,20.38
2022-10-05T04:01:39.160Z,20.27
2022-10-05T04:04:18.955Z,22.23
2022-10-05T04:06:50.293Z,20.73
2022-10-05T04:09:22.477Z,20.65
2022-10-05T04:12:22.750Z,22.38
2022-10-05T04:14:56.873Z,23.00
2022-10-05T04:17:39.455Z,21.05
2022-10-05T04:20:15.299Z,17.55
2022-10-05T04:23:11.097Z,22.45
2022-10-05T04:25:46.640Z,18.67
2022-10-05T04:28:32.356Z,15.93
2022-10-05T04:31:04.250Z,20.30
2022-10-05T04:33:32.791Z,19.50
2022-10-05T04:36:27.475Z,15.50
2022-10-05T04:39:31.751Z,17.48
2022-10-05T04:42:23.995Z,17.17
2022-10-05T04:44:58.410Z,18.65
2022-10-05T04:47:59.942Z,19.13
2022-10-05T04:50:49.512Z,17.13
2022-10-05T04:53:44.268Z,15.55
2022-10-05T04:56:18.772Z,19.85
2022-10-05T04:59:12.341Z,22.05
2022-10-05T05:01:52.595Z,21.00
2022-10-05T05:04:41.756Z,20.65
2022-10-05T05:07:48.281Z,20.33
2022-10-05T05:10:40.992Z,19.27
2022-10-05T05:13:12.556Z,15.95
2022-10-05T05:15:43.516Z,19.80
2022-10-05T05:18:11.652Z,16.52
2022-10-05T05:20:53.607Z,20.75
2022-10-05T05:23:32.027Z,19.85
2022-10-05T05:26:21.276Z,16.52
2022-10-05T05:29:22.142Z,21.05
2022-10-05T05:31:53.289Z,17.92
2022-10-05T05:34:49.054Z,17.70
2022-10-05T05:37:39.293Z,19.80
2022-10-05T05:40:19.737Z,17.55
2022-10-05T05:43:02.680Z,15.63
2022-10-05T05:45:38.554Z,14.73
2022-10-05T05:48:23.275Z,16.98
2022-10-05T05:51:04.409Z,20.55
2022-10-05T05:53:44.678Z,19.83
2022-10-05T05:56:17.261Z,16.00
2022-10-05T05:59:00.242Z,21.42
2022-10-05T06:01:39.483Z,17.33
2022-10-05T06:04:26.026Z,17.17
2022-10-05T06:06:56.626Z,19.20
2022-10-05T06:09:31.500Z,16.65
2022-10-05T06:12:47.047Z,20.13
2022-10-05T06:15:26.240Z,18.13
2022-10-05T06:17:59.136Z,19.15
2022-10-05T06:20:39.810Z,21.52
2022-10-05T06:23:30.465Z,17.23
2022-10-05T06:28:58.399Z,18.13
2022-10-05T06:31:30.050Z,20.20
2022-10-05T06:34:35.128Z,20.10
2022-10-05T06:37:13.344Z,20.80
2022-10-05T06:40:22.140Z,17.85
2022-10-05T06:43:05.938Z,15.57
2022-10-05T06:45:45.524Z,15.07
2022-10-05T06:48:50.642Z,18.10
2022-10-05T06:51:47.510Z,14.38
2022-10-05T06:54:39.242Z,16.45
2022-10-05T06:57:15.905Z,14.48
2022-10-05T07:00:04.879Z,14.00
2022-10-05T07:03:04.005Z,15.15
2022-10-05T07:05:54.140Z,12.38
2022-10-05T07:08:44.423Z,12.52
2022-10-05T07:11:40.168Z,10.93
2022-10-05T07:14:29.310Z,11.85
2022-10-05T07:20:08.257Z,13.00
2022-10-05T07:22:54.395Z,11.80
2022-10-05T07:25:36.035Z,11.15
2022-10-05T07:28:18.214Z,9.48
2022-10-05T07:31:07.971Z,9.23
2022-10-05T07:34:07.095Z,9.95
2022-10-05T07:37:22.279Z,12.32
2022-10-05T07:40:01.220Z,11.02
2022-10-05T07:42:48.868Z,11.50
2022-10-05T07:45:46.496Z,10.90
2022-10-05T07:48:17.510Z,11.95
2022-10-05T07:51:00.379Z,13.68
2022-10-05T07:53:41.781Z,10.38
2022-10-05T07:56:36.993Z,10.55
2022-10-05T07:59:12.319Z,13.50
2022-10-05T08:01:48.300Z,10.52
2022-10-05T08:04:32.155Z,9.48
2022-10-05T08:07:08.170Z,10.15
2022-10-05T08:09:45.714Z,9.65
2022-10-05T08:12:31.861Z,9.35
2022-10-05T08:15:21.041Z,10.77
2022-10-05T08:18:19.124Z,10.05
2022-10-05T08:20:52.210Z,10.38
2022-10-05T08:23:54.990Z,10.85
2022-10-05T08:26:43.694Z,10.02
2022-10-05T08:29:41.360Z,12.68
2022-10-05T08:32:34.155Z,10.20
2022-10-05T08:35:21.521Z,15.82
2022-10-05T08:37:50.915Z,10.48
2022-10-05T08:40:33.695Z,14.80
2022-10-05T08:43:01.448Z,10.02
2022-10-05T08:46:10.164Z,10.73
2022-10-05T08:48:57.491Z,12.43
2022-10-05T08:51:53.128Z,13.52
2022-10-05T08:54:57.704Z,11.95
2022-10-05T08:58:02.758Z,12.63
2022-10-05T09:00:54.169Z,11.80
2022-10-05T09:03:40.438Z,11.25
2022-10-05T09:06:33.819Z,18.88
2022-10-05T09:09:13.653Z,12.80
2022-10-05T09:12:09.887Z,12.07
2022-10-05T09:15:25.888Z,12.52
2022-10-05T09:17:51.821Z,11.65
2022-10-05T09:20:37.657Z,11.45
2022-10-05T09:23:23.015Z,11.15
2022-10-05T09:26:11.497Z,11.73
2022-10-05T09:29:09.985Z,12.07
2022-10-05T09:32:20.451Z,12.05
2022-10-05T09:35:00.426Z,12.30
2022-10-05T09:37:35.333Z,11.80
2022-10-05T09:40:22.032Z,11.13
2022-10-05T09:43:15.657Z,13.18
2022-10-05T09:46:04.771Z,11.52
2022-10-05T09:48:58.873Z,11.15
2022-10-05T09:51:47.976Z,13.25
2022-10-05T09:54:40.467Z,16.00
2022-10-05T09:57:34.587Z,16.30
2022-10-05T10:00:23.181Z,12.98
2022-10-05T10:03:09.503Z,14.82
2022-10-05T10:06:25.175Z,11.20
2022-10-05T10:09:39.898Z,10.40
2022-10-05T10:12:32.588Z,11.00
2022-10-05T10:15:28.910Z,11.93
2022-10-05T10:18:30.822Z,10.88
2022-10-05T10:21:36.118Z,11.52
2022-10-05T10:24:35.832Z,10.32
2022-10-05T10:27:54.383Z,7.80
2022-10-05T10:30:28.471Z,6.28
2022-10-05T10:33:35.067Z,8.57
2022-10-05T10:36:28.588Z,6.57
2022-10-05T10:39:04.751Z,6.25
2022-10-05T10:41:44.489Z,8.70
2022-10-05T10:44:42.227Z,8.73
2022-10-05T10:47:24.678Z,8.63
2022-10-05T10:50:16.710Z,6.50
2022-10-05T10:53:05.894Z,5.97
2022-10-05T10:55:44.414Z,7.68
2022-10-05T10:58:21.273Z,6.53
2022-10-05T11:00:58.006Z,8.77
2022-10-05T11:04:01.870Z,7.03
2022-10-05T11:07:05.861Z,7.40
2022-10-05T11:10:11.774Z,5.28
2022-10-05T11:12:58.962Z,5.50
2022-10-05T11:16:00.976Z,6.03
2022-10-05T11:19:06.205Z,6.55
2022-10-05T11:22:04.621Z,6.43
2022-10-05T11:24:41.353Z,7.68
2022-10-05T11:27:15.012Z,11.45
2022-10-05T11:30:03.732Z,11.73
2022-10-05T11:32:43.433Z,8.02
2022-10-05T11:35:45.794Z,6.00
2022-10-05T11:38:46.618Z,7.45
2022-10-05T11:41:37.026Z,6.68
2022-10-05T11:44:19.974Z,6.55
2022-10-05T11:47:31.378Z,6.40
2022-10-05T11:50:06.697Z,6.13
2022-10-05T11:52:52.549Z,6.72
2022-10-05T11:55:20.391Z,9.43
2022-10-05T11:57:58.665Z,8.43
2022-10-05T12:00:36.444Z,9.73
2022-10-05T12:03:24.143Z,7.47
2022-10-05T12:06:56.874Z,12.63
2022-10-05T12:10:06.224Z,7.85
2022-10-05T12:12:41.088Z,9.48
2022-10-05T12:15:17.660Z,7.53
2022-10-05T12:17:51.491Z,6.65
2022-10-05T12:20:28.667Z,6.80
2022-10-05T12:23:16.001Z,6.50
2022-10-05T12:25:55.758Z,6.97
2022-10-05T12:28:39.193Z,8.90
2022-10-05T12:31:19.027Z,6.63
2022-10-05T12:34:09.431Z,7.72
2022-10-05T12:37:08.280Z,7.55
2022-10-05T12:39:54.108Z,7.43
2022-10-05T12:42:24.839Z,7.82
2022-10-05T12:45:17.236Z,8.98
2022-10-05T12:48:13.590Z,7.03
2022-10-05T12:50:46.732Z,7.47
2022-10-05T12:53:15.501Z,9.90
2022-10-05T12:55:51.441Z,10.50
2022-10-05T12:58:38.959Z,7.47
2022-10-05T13:01:09.690Z,8.40
2022-10-05T13:03:39.121Z,7.90
2022-10-05T13:06:12.904Z,7.43
2022-10-05T13:08:54.859Z,8.10
2022-10-05T13:11:50.863Z,8.48
2022-10-05T13:15:06.998Z,7.97
2022-10-05T13:17:49.396Z,8.38
2022-10-05T13:20:49.392Z,8.05
2022-10-05T13:23:57.348Z,8.80
2022-10-05T13:26:31.929Z,9.45
2022-10-05T13:29:18.389Z,8.23
2022-10-05T13:31:55.974Z,9.23
2022-10-05T13:34:39.238Z,8.18
2022-10-05T13:37:19.217Z,7.32
2022-10-05T13:40:21.853Z,8.15
2022-10-05T13:43:11.387Z,9.77
2022-10-05T13:45:52.709Z,7.68
2022-10-05T13:48:48.476Z,7.65
2022-10-05T13:51:22.316Z,9.18
2022-10-05T13:54:00.590Z,8.70
2022-10-05T13:56:40.038Z,10.02
2022-10-05T13:59:27.957Z,9.27
2022-10-05T14:02:12.693Z,9.02
2022-10-05T14:04:49.536Z,7.47
2022-10-05T14:08:04.273Z,7.75
2022-10-05T14:10:38.536Z,7.68
2022-10-05T14:13:29.161Z,7.82
2022-10-05T14:16:14.185Z,8.23
2022-10-05T14:18:58.885Z,9.55
2022-10-05T14:21:31.635Z,7.47
2022-10-05T14:24:42.525Z,9.95
2022-10-05T14:27:25.569Z,8.48
2022-10-05T14:30:02.100Z,7.85
2022-10-05T14:32:44.842Z,9.32
2022-10-05T14:35:19.108Z,8.88
2022-10-05T14:38:00.176Z,8.40
2022-10-05T14:40:34.385Z,8.23
2022-10-05T14:43:22.351Z,7.65
2022-10-05T14:45:58.564Z,10.68
2022-10-05T14:48:28.659Z,10.48
2022-10-05T14:51:03.566Z,9.07
2022-10-05T14:53:56.999Z,9.60
2022-10-05T14:56:53.339Z,9.70
2022-10-05T14:59:23.919Z,12.77
2022-10-05T15:02:15.900Z,7.88
2022-10-05T15:05:36.563Z,11.20
2022-10-05T15:08:24.068Z,8.10
2022-10-05T15:11:09.113Z,12.27
2022-10-05T15:13:42.843Z,9.77
2022-10-05T15:16:21.651Z,9.35
2022-10-05T15:19:14.174Z,8.23
2022-10-05T15:21:45.343Z,9.80
2022-10-05T15:24:20.614Z,10.90
2022-10-05T15:27:00.884Z,12.50
2022-10-05T15:29:29.901Z,11.80
2022-10-05T15:32:05.611Z,9.65
2022-10-05T15:34:44.105Z,9.60
2022-10-05T15:37:27.816Z,7.72
2022-10-05T15:40:00.135Z,14.30
2022-10-05T15:42:41.824Z,8.48
2022-10-05T15:45:34.526Z,14.18
2022-10-05T15:48:15.514Z,24.60
2022-10-05T15:51:07.558Z,38.28
2022-10-05T15:53:49.723Z,26.48
2022-10-05T15:56:52.028Z,19.80
2022-10-05T15:59:43.986Z,26.90
2022-10-05T16:02:30.055Z,25.25
2022-10-05T16:05:16.310Z,20.10
2022-10-05T16:08:08.231Z,24.92
2022-10-05T16:10:42.278Z,25.13
2022-10-05T16:13:38.155Z,10.07
2022-10-05T16:16:33.270Z,11.02
2022-10-05T16:19:09.748Z,13.23
2022-10-05T16:22:07.494Z,15.77
2022-10-05T16:24:48.013Z,13.65
2022-10-05T16:27:33.817Z,11.55
2022-10-05T16:30:07.950Z,9.27
2022-10-05T16:32:50.507Z,12.07
2022-10-05T16:35:21.410Z,13.63
2022-10-05T16:38:18.228Z,9.43
2022-10-05T16:41:22.917Z,8.90
2022-10-05T16:44:22.204Z,10.70
2022-10-05T16:51:09.004Z,12.07
2022-10-05T16:53:53.061Z,13.57
2022-10-05T16:56:25.870Z,8.52
2022-10-05T16:59:24.429Z,8.40
2022-10-05T17:01:58.259Z,11.02
2022-10-05T17:04:32.407Z,8.23
2022-10-05T17:07:21.658Z,9.43
2022-10-05T17:10:11.031Z,10.07
2022-10-05T17:13:13.712Z,11.10
2022-10-05T17:16:05.423Z,15.93
2022-10-05T17:19:16.699Z,12.50
2022-10-05T17:22:00.867Z,9.85
2022-10-05T17:24:38.028Z,13.32
2022-10-05T17:27:35.447Z,11.85
2022-10-05T17:30:24.217Z,8.63
2022-10-05T17:33:14.969Z,12.27
2022-10-05T17:36:11.838Z,12.23
2022-10-05T17:38:52.531Z,11.15
2022-10-05T17:44:24.674Z,10.23
2022-10-05T17:47:00.783Z,15.57
2022-10-05T17:49:34.562Z,15.30
2022-10-05T17:52:59.975Z,12.18
2022-10-05T17:55:33.463Z,12.35
2022-10-05T17:58:28.883Z,14.73
2022-10-05T18:00:58.695Z,13.40
2022-10-05T18:03:53.131Z,12.90
2022-10-05T18:06:32.073Z,13.43
2022-10-05T18:09:20.931Z,13.60
2022-10-05T18:12:16.940Z,13.05
2022-10-05T18:15:02.072Z,21.75
2022-10-05T18:17:45.996Z,35.47
2022-10-05T18:20:29.541Z,39.33
2022-10-05T18:23:24.138Z,49.42
2022-10-05T18:26:01.605Z,60.45
2022-10-05T18:28:39.519Z,63.15
2022-10-05T18:31:18.227Z,56.00
2022-10-05T18:34:04.698Z,58.40
2022-10-05T18:36:59.031Z,53.53
2022-10-05T18:39:56.822Z,51.22
2022-10-05T18:42:45.705Z,50.00
2022-10-05T18:45:32.299Z,44.40
2022-10-05T18:48:26.642Z,33.63
2022-10-05T18:51:23.944Z,43.58
2022-10-05T18:54:03.213Z,44.70
2022-10-05T18:56:48.857Z,52.95
2022-10-05T18:59:51.694Z,52.50
2022-10-05T19:02:26.474Z,46.97
2022-10-05T19:05:29.558Z,47.17
2022-10-05T19:08:36.433Z,48.72
2022-10-05T19:11:30.460Z,50.05
2022-10-05T19:14:29.184Z,46.28
2022-10-05T19:17:21.231Z,45.08
2022-10-05T19:20:21.024Z,42.35
2022-10-05T19:23:09.636Z,43.60
2022-10-05T19:25:55.040Z,42.60
2022-10-05T19:28:35.139Z,34.90
2022-10-05T19:31:10.065Z,24.80
2022-10-05T19:33:38.377Z,24.80
2022-10-05T19:36:33.638Z,18.08
2022-10-05T19:39:04.190Z,14.00
2022-10-05T19:44:38.684Z,19.20
2022-10-05T19:47:17.812Z,24.00
2022-10-05T19:49:49.238Z,25.15
2022-10-05T19:52:29.431Z,36.17
2022-10-05T19:55:12.961Z,35.00
2022-10-05T19:57:49.216Z,42.70
2022-10-05T20:00:31.868Z,33.30
2022-10-05T20:03:20.391Z,40.35
2022-10-05T20:05:48.726Z,49.10
2022-10-05T20:08:19.190Z,48.33
2022-10-05T20:13:35.544Z,56.08
2022-10-05T20:16:36.500Z,51.03
2022-10-05T20:19:51.085Z,44.72
2022-10-05T20:22:28.385Z,31.17
2022-10-05T20:25:00.597Z,27.95
2022-10-05T20:27:41.236Z,20.02
2022-10-05T20:30:11.480Z,32.30
2022-10-05T20:32:39.377Z,44.90
2022-10-05T20:35:07.776Z,45.25
2022-10-05T20:37:37.048Z,48.15
2022-10-05T20:40:06.095Z,45.45
2022-10-05T20:42:34.115Z,57.40
2022-10-05T20:45:02.252Z,54.03
2022-10-05T20:47:30.549Z,49.28
2022-10-05T20:49:58.657Z,61.45
2022-10-05T20:52:26.266Z,46.38
2022-10-05T20:54:56.900Z,37.28
2022-10-05T20:57:24.936Z,29.42
2022-10-05T20:59:52.554Z,53.85
2022-10-05T21:02:20.618Z,50.03
2022-10-05T21:04:48.972Z,48.60
2022-10-05T21:07:19.906Z,41.33
2022-10-05T21:09:47.694Z,37.72
2022-10-05T21:12:16.627Z,32.97
2022-10-05T21:14:44.345Z,22.58
2022-10-05T21:17:12.793Z,22.58
2022-10-05T21:19:40.797Z,28.52
2022-10-05T21:22:10.299Z,31.38
2022-10-05T21:24:39.975Z,35.72
2022-10-05T21:27:08.036Z,40.43
2022-10-05T21:29:36.763Z,66.35
2022-10-05T21:32:12.087Z,74.88
2022-10-05T21:34:41.501Z,70.88
2022-10-05T21:37:10.278Z,79.65
2022-10-05T21:39:38.345Z,72.43
2022-10-05T21:42:06.099Z,69.32
2022-10-05T21:44:34.089Z,74.70
2022-10-05T21:47:02.378Z,59.13
2022-10-05T21:49:31.594Z,52.50
2022-10-05T21:52:00.603Z,48.33
2022-10-05T21:54:28.864Z,57.95
2022-10-05T21:56:58.700Z,57.55
2022-10-05T21:59:29.776Z,51.60
2022-10-05T22:01:57.585Z,52.22
2022-10-05T22:04:25.486Z,48.30
2022-10-05T22:06:54.725Z,49.83
2022-10-05T22:09:22.384Z,51.70
2022-10-05T22:11:50.140Z,44.65
2022-10-05T22:14:17.927Z,43.65
2022-10-05T22:16:45.726Z,47.58
2022-10-05T22:19:18.482Z,45.08
2022-10-05T22:21:46.263Z,36.45
2022-10-05T22:24:13.962Z,37.53
2022-10-05T22:26:44.568Z,37.55
2022-10-05T22:29:12.370Z,42.13
2022-10-05T22:31:39.970Z,33.22
2022-10-05T22:34:07.727Z,26.90
2022-10-05T22:36:36.665Z,21.08
2022-10-05T22:39:04.665Z,24.20
2022-10-05T22:41:32.414Z,25.05
2022-10-05T22:44:00.946Z,24.17
2022-10-05T22:46:28.816Z,22.70
2022-10-05T22:48:56.418Z,21.75
2022-10-05T22:51:24.669Z,18.38
2022-10-05T22:53:52.559Z,17.05
2022-10-05T22:56:20.575Z,17.30
2022-10-05T22:58:48.089Z,18.58
2022-10-05T23:01:18.769Z,24.20
2022-10-05T23:03:46.900Z,19.25
2022-10-05T23:06:17.958Z,18.38
2022-10-05T23:08:46.853Z,16.45
2022-10-05T23:11:23.791Z,19.33
2022-10-05T23:13:52.580Z,19.27
2022-10-05T23:16:22.721Z,14.40
2022-10-05T23:18:52.441Z,17.85
2022-10-05T23:21:21.565Z,27.33
2022-10-05T23:23:51.590Z,18.75
2022-10-05T23:26:24.659Z,19.20
2022-10-05T23:28:52.329Z,16.75
2022-10-05T23:31:22.971Z,18.50
2022-10-05T23:33:51.450Z,17.20
2022-10-05T23:36:21.014Z,15.63
2022-10-05T23:38:49.228Z,12.43
2022-10-05T23:41:17.458Z,17.40
2022-10-05T23:43:45.301Z,14.30
2022-10-05T23:46:14.112Z,17.38
2022-10-05T23:48:41.771Z,18.45
2022-10-05T23:51:11.986Z,15.50
2022-10-05T23:53:39.707Z,16.58
2022-10-05T23:56:07.532Z,20.33
2022-10-05T23:58:35.182Z,15.32
